sensor_id;sensor_type;location;lat;lon;timestamp;P1;durP1;ratioP1;P2;durP2;ratioP2
46505;SDS011;32220;49.808;9.968;2023-04-30T00:00:08;6.67;;;6.07;;
46505;SDS011;32220;49.808;9.968;2023-04-30T00:02:39;8.20;;;6.33;;
46505;SDS011;32220;49.808;9.968;2023-04-30T00:05:07;8.07;;;7.27;;
46505;SDS011;32220;49.808;9.968;2023-04-30T00:07:35;7.87;;;7.13;;
46505;SDS011;32220;49.808;9.968;2023-04-30T00:10:09;8.60;;;7.73;;
46505;SDS011;32220;49.808;9.968;2023-04-30T00:12:37;7.73;;;6.93;;
46505;SDS011;32220;49.808;9.968;2023-04-30T00:15:05;7.30;;;6.03;;
46505;SDS011;32220;49.808;9.968;2023-04-30T00:17:33;7.47;;;6.77;;
46505;SDS011;32220;49.808;9.968;2023-04-30T00:20:01;8.10;;;7.30;;
46505;SDS011;32220;49.808;9.968;2023-04-30T00:22:29;7.70;;;6.87;;
46505;SDS011;32220;49.808;9.968;2023-04-30T00:24:58;6.77;;;6.17;;
46505;SDS011;32220;49.808;9.968;2023-04-30T00:27:27;6.67;;;5.80;;
46505;SDS011;32220;49.808;9.968;2023-04-30T00:29:56;5.90;;;5.40;;
46505;SDS011;32220;49.808;9.968;2023-04-30T00:32:23;5.70;;;5.10;;
46505;SDS011;32220;49.808;9.968;2023-04-30T00:34:51;6.70;;;5.40;;
46505;SDS011;32220;49.808;9.968;2023-04-30T00:37:19;5.27;;;4.77;;
46505;SDS011;32220;49.808;9.968;2023-04-30T00:39:47;5.40;;;4.93;;
46505;SDS011;32220;49.808;9.968;2023-04-30T00:42:14;4.93;;;4.43;;
46505;SDS011;32220;49.808;9.968;2023-04-30T00:44:43;5.27;;;4.83;;
46505;SDS011;32220;49.808;9.968;2023-04-30T00:47:11;6.37;;;5.77;;
46505;SDS011;32220;49.808;9.968;2023-04-30T00:49:39;6.50;;;5.37;;
46505;SDS011;32220;49.808;9.968;2023-04-30T00:52:06;5.93;;;5.33;;
46505;SDS011;32220;49.808;9.968;2023-04-30T00:54:34;6.30;;;5.70;;
46505;SDS011;32220;49.808;9.968;2023-04-30T00:57:02;7.43;;;6.63;;
46505;SDS011;32220;49.808;9.968;2023-04-30T00:59:31;7.40;;;6.70;;
46505;SDS011;32220;49.808;9.968;2023-04-30T01:02:01;8.57;;;7.50;;
46505;SDS011;32220;49.808;9.968;2023-04-30T01:04:29;8.47;;;7.67;;
46505;SDS011;32220;49.808;9.968;2023-04-30T01:06:58;8.03;;;7.33;;
46505;SDS011;32220;49.808;9.968;2023-04-30T01:09:27;7.60;;;6.90;;
46505;SDS011;32220;49.808;9.968;2023-04-30T01:11:56;8.50;;;7.60;;
46505;SDS011;32220;49.808;9.968;2023-04-30T01:14:37;8.47;;;7.67;;
46505;SDS011;32220;49.808;9.968;2023-04-30T01:17:12;8.67;;;7.70;;
46505;SDS011;32220;49.808;9.968;2023-04-30T01:19:44;8.10;;;7.30;;
46505;SDS011;32220;49.808;9.968;2023-04-30T01:22:13;6.67;;;5.97;;
46505;SDS011;32220;49.808;9.968;2023-04-30T01:25:00;7.20;;;6.43;;
46505;SDS011;32220;49.808;9.968;2023-04-30T01:27:53;7.97;;;7.03;;
46505;SDS011;32220;49.808;9.968;2023-04-30T01:30:29;8.97;;;7.47;;
46505;SDS011;32220;49.808;9.968;2023-04-30T01:32:58;6.53;;;5.83;;
46505;SDS011;32220;49.808;9.968;2023-04-30T01:35:32;8.33;;;7.47;;
46505;SDS011;32220;49.808;9.968;2023-04-30T01:38:19;7.77;;;7.00;;
46505;SDS011;32220;49.808;9.968;2023-04-30T01:41:00;8.37;;;7.47;;
46505;SDS011;32220;49.808;9.968;2023-04-30T01:43:39;7.80;;;6.97;;
46505;SDS011;32220;49.808;9.968;2023-04-30T01:46:16;7.57;;;6.83;;
46505;SDS011;32220;49.808;9.968;2023-04-30T01:48:50;6.43;;;5.47;;
46505;SDS011;32220;49.808;9.968;2023-04-30T01:51:27;5.80;;;5.23;;
46505;SDS011;32220;49.808;9.968;2023-04-30T01:54:00;7.50;;;6.80;;
46505;SDS011;32220;49.808;9.968;2023-04-30T01:56:36;6.47;;;5.87;;
46505;SDS011;32220;49.808;9.968;2023-04-30T01:59:12;6.17;;;5.57;;
46505;SDS011;32220;49.808;9.968;2023-04-30T02:01:41;8.40;;;6.67;;
46505;SDS011;32220;49.808;9.968;2023-04-30T02:04:09;7.83;;;7.13;;
46505;SDS011;32220;49.808;9.968;2023-04-30T02:06:37;7.17;;;6.57;;
46505;SDS011;32220;49.808;9.968;2023-04-30T02:09:06;7.70;;;6.97;;
46505;SDS011;32220;49.808;9.968;2023-04-30T02:11:35;10.50;;;8.07;;
46505;SDS011;32220;49.808;9.968;2023-04-30T02:14:03;9.40;;;8.57;;
46505;SDS011;32220;49.808;9.968;2023-04-30T02:16:32;8.63;;;7.73;;
46505;SDS011;32220;49.808;9.968;2023-04-30T02:19:00;10.03;;;8.27;;
46505;SDS011;32220;49.808;9.968;2023-04-30T02:21:28;9.50;;;8.50;;
46505;SDS011;32220;49.808;9.968;2023-04-30T02:23:56;10.03;;;8.03;;
46505;SDS011;32220;49.808;9.968;2023-04-30T02:26:23;9.43;;;8.47;;
46505;SDS011;32220;49.808;9.968;2023-04-30T02:28:51;9.67;;;8.70;;
46505;SDS011;32220;49.808;9.968;2023-04-30T02:31:19;10.77;;;9.77;;
46505;SDS011;32220;49.808;9.968;2023-04-30T02:33:48;9.27;;;8.37;;
46505;SDS011;32220;49.808;9.968;2023-04-30T02:36:16;8.63;;;7.83;;
46505;SDS011;32220;49.808;9.968;2023-04-30T02:38:43;9.00;;;8.10;;
46505;SDS011;32220;49.808;9.968;2023-04-30T02:41:11;8.53;;;7.80;;
46505;SDS011;32220;49.808;9.968;2023-04-30T02:43:39;8.97;;;8.23;;
46505;SDS011;32220;49.808;9.968;2023-04-30T02:46:06;11.20;;;8.63;;
46505;SDS011;32220;49.808;9.968;2023-04-30T02:48:34;8.57;;;7.77;;
46505;SDS011;32220;49.808;9.968;2023-04-30T02:51:03;9.57;;;8.57;;
46505;SDS011;32220;49.808;9.968;2023-04-30T02:53:31;7.23;;;6.53;;
46505;SDS011;32220;49.808;9.968;2023-04-30T02:55:59;7.90;;;6.73;;
46505;SDS011;32220;49.808;9.968;2023-04-30T02:58:26;6.50;;;5.90;;
46505;SDS011;32220;49.808;9.968;2023-04-30T03:00:55;6.00;;;5.50;;
46505;SDS011;32220;49.808;9.968;2023-04-30T03:03:22;7.33;;;6.63;;
46505;SDS011;32220;49.808;9.968;2023-04-30T03:05:50;7.80;;;7.10;;
46505;SDS011;32220;49.808;9.968;2023-04-30T03:08:19;9.70;;;8.47;;
46505;SDS011;32220;49.808;9.968;2023-04-30T03:10:47;10.53;;;9.37;;
46505;SDS011;32220;49.808;9.968;2023-04-30T03:13:14;8.97;;;8.13;;
46505;SDS011;32220;49.808;9.968;2023-04-30T03:15:42;8.23;;;7.53;;
46505;SDS011;32220;49.808;9.968;2023-04-30T03:18:11;8.07;;;7.27;;
46505;SDS011;32220;49.808;9.968;2023-04-30T03:20:38;8.63;;;7.73;;
46505;SDS011;32220;49.808;9.968;2023-04-30T03:23:07;11.60;;;9.07;;
46505;SDS011;32220;49.808;9.968;2023-04-30T03:25:36;8.13;;;7.33;;
46505;SDS011;32220;49.808;9.968;2023-04-30T03:28:04;8.90;;;8.10;;
46505;SDS011;32220;49.808;9.968;2023-04-30T03:30:31;9.60;;;8.60;;
46505;SDS011;32220;49.808;9.968;2023-04-30T03:32:59;10.20;;;9.20;;
46505;SDS011;32220;49.808;9.968;2023-04-30T03:35:27;10.03;;;9.00;;
46505;SDS011;32220;49.808;9.968;2023-04-30T03:37:55;10.47;;;8.63;;
46505;SDS011;32220;49.808;9.968;2023-04-30T03:40:24;10.43;;;9.30;;
46505;SDS011;32220;49.808;9.968;2023-04-30T03:42:53;10.17;;;8.20;;
46505;SDS011;32220;49.808;9.968;2023-04-30T03:45:20;7.87;;;7.10;;
46505;SDS011;32220;49.808;9.968;2023-04-30T03:47:48;9.23;;;8.33;;
46505;SDS011;32220;49.808;9.968;2023-04-30T03:50:17;8.37;;;7.57;;
46505;SDS011;32220;49.808;9.968;2023-04-30T03:52:45;9.00;;;8.10;;
46505;SDS011;32220;49.808;9.968;2023-04-30T03:55:14;8.80;;;7.90;;
46505;SDS011;32220;49.808;9.968;2023-04-30T03:57:42;9.50;;;8.53;;
46505;SDS011;32220;49.808;9.968;2023-04-30T04:00:13;9.90;;;8.97;;
46505;SDS011;32220;49.808;9.968;2023-04-30T04:02:46;11.97;;;9.73;;
46505;SDS011;32220;49.808;9.968;2023-04-30T04:05:14;10.53;;;9.60;;
46505;SDS011;32220;49.808;9.968;2023-04-30T04:07:43;11.00;;;8.90;;
46505;SDS011;32220;49.808;9.968;2023-04-30T04:10:11;9.93;;;8.93;;
46505;SDS011;32220;49.808;9.968;2023-04-30T04:12:39;10.03;;;9.07;;
46505;SDS011;32220;49.808;9.968;2023-04-30T04:15:08;12.00;;;10.83;;
46505;SDS011;32220;49.808;9.968;2023-04-30T04:17:38;11.30;;;9.47;;
46505;SDS011;32220;49.808;9.968;2023-04-30T04:20:06;12.23;;;10.97;;
46505;SDS011;32220;49.808;9.968;2023-04-30T04:22:37;12.67;;;9.47;;
46505;SDS011;32220;49.808;9.968;2023-04-30T04:25:05;10.80;;;9.73;;
46505;SDS011;32220;49.808;9.968;2023-04-30T04:27:34;11.47;;;10.37;;
46505;SDS011;32220;49.808;9.968;2023-04-30T04:30:02;10.30;;;9.27;;
46505;SDS011;32220;49.808;9.968;2023-04-30T04:32:30;12.43;;;11.23;;
46505;SDS011;32220;49.808;9.968;2023-04-30T04:34:59;9.83;;;8.83;;
46505;SDS011;32220;49.808;9.968;2023-04-30T04:37:27;10.93;;;9.77;;
46505;SDS011;32220;49.808;9.968;2023-04-30T04:39:55;11.70;;;10.43;;
46505;SDS011;32220;49.808;9.968;2023-04-30T04:42:23;10.10;;;9.13;;
46505;SDS011;32220;49.808;9.968;2023-04-30T04:44:51;10.93;;;9.83;;
46505;SDS011;32220;49.808;9.968;2023-04-30T04:47:19;11.83;;;10.30;;
46505;SDS011;32220;49.808;9.968;2023-04-30T04:49:47;11.30;;;10.03;;
46505;SDS011;32220;49.808;9.968;2023-04-30T04:52:17;11.10;;;10.00;;
46505;SDS011;32220;49.808;9.968;2023-04-30T04:54:44;11.50;;;10.30;;
46505;SDS011;32220;49.808;9.968;2023-04-30T04:57:13;11.70;;;10.10;;
46505;SDS011;32220;49.808;9.968;2023-04-30T04:59:40;11.43;;;9.50;;
46505;SDS011;32220;49.808;9.968;2023-04-30T05:02:08;11.97;;;10.00;;
46505;SDS011;32220;49.808;9.968;2023-04-30T05:04:36;10.57;;;9.53;;
46505;SDS011;32220;49.808;9.968;2023-04-30T05:07:04;13.10;;;10.43;;
46505;SDS011;32220;49.808;9.968;2023-04-30T05:09:34;10.87;;;9.73;;
46505;SDS011;32220;49.808;9.968;2023-04-30T05:12:02;11.10;;;10.03;;
46505;SDS011;32220;49.808;9.968;2023-04-30T05:14:30;10.97;;;9.97;;
46505;SDS011;32220;49.808;9.968;2023-04-30T05:16:57;10.63;;;9.53;;
46505;SDS011;32220;49.808;9.968;2023-04-30T05:19:25;10.27;;;9.27;;
46505;SDS011;32220;49.808;9.968;2023-04-30T05:21:53;9.90;;;8.90;;
46505;SDS011;32220;49.808;9.968;2023-04-30T05:24:21;10.40;;;9.10;;
46505;SDS011;32220;49.808;9.968;2023-04-30T05:26:50;11.47;;;10.30;;
46505;SDS011;32220;49.808;9.968;2023-04-30T05:29:17;11.77;;;10.67;;
46505;SDS011;32220;49.808;9.968;2023-04-30T05:31:45;11.73;;;9.93;;
46505;SDS011;32220;49.808;9.968;2023-04-30T05:34:12;11.20;;;10.23;;
46505;SDS011;32220;49.808;9.968;2023-04-30T05:36:40;11.70;;;10.47;;
46505;SDS011;32220;49.808;9.968;2023-04-30T05:39:08;11.97;;;9.77;;
46505;SDS011;32220;49.808;9.968;2023-04-30T05:41:35;10.97;;;9.50;;
46505;SDS011;32220;49.808;9.968;2023-04-30T05:44:05;10.70;;;9.33;;
46505;SDS011;32220;49.808;9.968;2023-04-30T05:46:33;10.53;;;9.30;;
46505;SDS011;32220;49.808;9.968;2023-04-30T05:49:01;11.07;;;9.87;;
46505;SDS011;32220;49.808;9.968;2023-04-30T05:51:29;10.17;;;9.17;;
46505;SDS011;32220;49.808;9.968;2023-04-30T05:53:57;11.00;;;9.30;;
46505;SDS011;32220;49.808;9.968;2023-04-30T05:56:25;10.60;;;9.50;;
46505;SDS011;32220;49.808;9.968;2023-04-30T05:58:53;9.93;;;8.90;;
46505;SDS011;32220;49.808;9.968;2023-04-30T06:01:22;10.67;;;9.57;;
46505;SDS011;32220;49.808;9.968;2023-04-30T06:03:49;13.53;;;10.60;;
46505;SDS011;32220;49.808;9.968;2023-04-30T06:06:17;9.40;;;8.50;;
46505;SDS011;32220;49.808;9.968;2023-04-30T06:08:45;10.33;;;9.33;;
46505;SDS011;32220;49.808;9.968;2023-04-30T06:11:13;10.87;;;9.67;;
46505;SDS011;32220;49.808;9.968;2023-04-30T06:13:40;10.40;;;9.40;;
46505;SDS011;32220;49.808;9.968;2023-04-30T06:16:08;9.97;;;8.90;;
46505;SDS011;32220;49.808;9.968;2023-04-30T06:18:37;12.23;;;9.37;;
46505;SDS011;32220;49.808;9.968;2023-04-30T06:21:05;9.53;;;8.63;;
46505;SDS011;32220;49.808;9.968;2023-04-30T06:23:33;8.27;;;7.37;;
46505;SDS011;32220;49.808;9.968;2023-04-30T06:26:00;9.93;;;8.10;;
46505;SDS011;32220;49.808;9.968;2023-04-30T06:28:28;10.10;;;9.20;;
46505;SDS011;32220;49.808;9.968;2023-04-30T06:30:56;9.23;;;8.17;;
46505;SDS011;32220;49.808;9.968;2023-04-30T06:33:24;8.50;;;7.07;;
46505;SDS011;32220;49.808;9.968;2023-04-30T06:35:53;9.57;;;8.67;;
46505;SDS011;32220;49.808;9.968;2023-04-30T06:38:20;8.87;;;7.97;;
46505;SDS011;32220;49.808;9.968;2023-04-30T06:40:48;8.80;;;7.67;;
46505;SDS011;32220;49.808;9.968;2023-04-30T06:43:16;8.87;;;7.60;;
46505;SDS011;32220;49.808;9.968;2023-04-30T06:45:44;9.73;;;8.23;;
46505;SDS011;32220;49.808;9.968;2023-04-30T06:48:12;8.73;;;7.73;;
46505;SDS011;32220;49.808;9.968;2023-04-30T06:50:40;8.00;;;7.30;;
46505;SDS011;32220;49.808;9.968;2023-04-30T06:53:11;8.80;;;7.90;;
46505;SDS011;32220;49.808;9.968;2023-04-30T06:55:39;8.20;;;7.00;;
46505;SDS011;32220;49.808;9.968;2023-04-30T06:58:07;8.50;;;7.80;;
46505;SDS011;32220;49.808;9.968;2023-04-30T07:00:35;7.93;;;7.13;;
46505;SDS011;32220;49.808;9.968;2023-04-30T07:03:03;8.23;;;7.43;;
46505;SDS011;32220;49.808;9.968;2023-04-30T07:05:30;8.37;;;7.50;;
46505;SDS011;32220;49.808;9.968;2023-04-30T07:07:59;8.80;;;7.83;;
46505;SDS011;32220;49.808;9.968;2023-04-30T07:10:29;8.10;;;7.30;;
46505;SDS011;32220;49.808;9.968;2023-04-30T07:12:57;7.80;;;7.10;;
46505;SDS011;32220;49.808;9.968;2023-04-30T07:15:25;7.87;;;7.03;;
46505;SDS011;32220;49.808;9.968;2023-04-30T07:17:53;8.00;;;7.30;;
46505;SDS011;32220;49.808;9.968;2023-04-30T07:20:20;7.70;;;6.77;;
46505;SDS011;32220;49.808;9.968;2023-04-30T07:22:48;7.00;;;6.20;;
46505;SDS011;32220;49.808;9.968;2023-04-30T07:25:16;8.60;;;6.77;;
46505;SDS011;32220;49.808;9.968;2023-04-30T07:27:45;7.23;;;6.53;;
46505;SDS011;32220;49.808;9.968;2023-04-30T07:30:13;8.17;;;6.80;;
46505;SDS011;32220;49.808;9.968;2023-04-30T07:32:40;7.70;;;6.57;;
46505;SDS011;32220;49.808;9.968;2023-04-30T07:35:08;6.70;;;6.00;;
46505;SDS011;32220;49.808;9.968;2023-04-30T07:37:36;6.90;;;6.30;;
46505;SDS011;32220;49.808;9.968;2023-04-30T07:40:04;7.43;;;6.70;;
46505;SDS011;32220;49.808;9.968;2023-04-30T07:42:38;8.83;;;6.67;;
46505;SDS011;32220;49.808;9.968;2023-04-30T07:45:08;7.47;;;6.60;;
46505;SDS011;32220;49.808;9.968;2023-04-30T07:47:37;6.73;;;6.13;;
46505;SDS011;32220;49.808;9.968;2023-04-30T07:50:05;7.33;;;6.63;;
46505;SDS011;32220;49.808;9.968;2023-04-30T07:52:34;7.43;;;6.70;;
46505;SDS011;32220;49.808;9.968;2023-04-30T07:55:01;6.60;;;6.10;;
46505;SDS011;32220;49.808;9.968;2023-04-30T07:57:29;6.53;;;5.90;;
46505;SDS011;32220;49.808;9.968;2023-04-30T07:59:57;5.90;;;5.40;;
46505;SDS011;32220;49.808;9.968;2023-04-30T08:02:26;7.17;;;5.90;;
46505;SDS011;32220;49.808;9.968;2023-04-30T08:04:54;6.30;;;5.63;;
46505;SDS011;32220;49.808;9.968;2023-04-30T08:07:21;6.27;;;5.63;;
46505;SDS011;32220;49.808;9.968;2023-04-30T08:09:50;5.90;;;5.17;;
46505;SDS011;32220;49.808;9.968;2023-04-30T08:12:18;7.00;;;5.73;;
46505;SDS011;32220;49.808;9.968;2023-04-30T08:14:46;5.93;;;5.43;;
46505;SDS011;32220;49.808;9.968;2023-04-30T08:17:13;5.10;;;4.60;;
46505;SDS011;32220;49.808;9.968;2023-04-30T08:19:43;4.63;;;4.20;;
46505;SDS011;32220;49.808;9.968;2023-04-30T08:22:10;4.20;;;3.80;;
46505;SDS011;32220;49.808;9.968;2023-04-30T08:24:38;3.57;;;3.17;;
46505;SDS011;32220;49.808;9.968;2023-04-30T08:27:06;4.17;;;3.27;;
46505;SDS011;32220;49.808;9.968;2023-04-30T08:29:34;3.47;;;3.27;;
46505;SDS011;32220;49.808;9.968;2023-04-30T08:32:02;3.40;;;3.10;;
46505;SDS011;32220;49.808;9.968;2023-04-30T08:34:30;3.50;;;3.20;;
46505;SDS011;32220;49.808;9.968;2023-04-30T08:36:59;3.23;;;2.93;;
46505;SDS011;32220;49.808;9.968;2023-04-30T08:39:27;2.80;;;2.60;;
46505;SDS011;32220;49.808;9.968;2023-04-30T08:41:55;3.30;;;3.00;;
46505;SDS011;32220;49.808;9.968;2023-04-30T08:44:24;3.33;;;3.03;;
46505;SDS011;32220;49.808;9.968;2023-04-30T08:46:53;3.30;;;3.00;;
46505;SDS011;32220;49.808;9.968;2023-04-30T08:49:23;2.93;;;2.37;;
46505;SDS011;32220;49.808;9.968;2023-04-30T08:51:53;3.10;;;2.80;;
46505;SDS011;32220;49.808;9.968;2023-04-30T08:54:22;2.83;;;2.63;;
46505;SDS011;32220;49.808;9.968;2023-04-30T08:56:52;3.30;;;3.00;;
46505;SDS011;32220;49.808;9.968;2023-04-30T08:59:19;3.33;;;2.90;;
46505;SDS011;32220;49.808;9.968;2023-04-30T09:01:47;2.80;;;2.60;;
46505;SDS011;32220;49.808;9.968;2023-04-30T09:04:15;2.83;;;2.63;;
46505;SDS011;32220;49.808;9.968;2023-04-30T09:06:42;3.33;;;3.10;;
46505;SDS011;32220;49.808;9.968;2023-04-30T09:09:11;3.00;;;2.77;;
46505;SDS011;32220;49.808;9.968;2023-04-30T09:11:42;3.57;;;2.97;;
46505;SDS011;32220;49.808;9.968;2023-04-30T09:14:09;3.13;;;2.90;;
46505;SDS011;32220;49.808;9.968;2023-04-30T09:16:44;3.40;;;3.08;;
46505;SDS011;32220;49.808;9.968;2023-04-30T09:19:21;3.05;;;2.85;;
46505;SDS011;32220;49.808;9.968;2023-04-30T09:21:53;3.13;;;2.83;;
46505;SDS011;32220;49.808;9.968;2023-04-30T09:24:21;2.78;;;2.58;;
46505;SDS011;32220;49.808;9.968;2023-04-30T09:26:50;2.30;;;2.10;;
46505;SDS011;32220;49.808;9.968;2023-04-30T09:29:19;2.58;;;2.00;;
46505;SDS011;32220;49.808;9.968;2023-04-30T09:31:47;2.40;;;2.20;;
46505;SDS011;32220;49.808;9.968;2023-04-30T09:34:15;2.25;;;2.05;;
46505;SDS011;32220;49.808;9.968;2023-04-30T09:36:52;2.10;;;1.90;;
46505;SDS011;32220;49.808;9.968;2023-04-30T09:39:20;2.50;;;2.30;;
46505;SDS011;32220;49.808;9.968;2023-04-30T09:41:50;1.98;;;1.88;;
46505;SDS011;32220;49.808;9.968;2023-04-30T09:44:28;2.55;;;2.35;;
46505;SDS011;32220;49.808;9.968;2023-04-30T09:46:56;2.05;;;1.85;;
46505;SDS011;32220;49.808;9.968;2023-04-30T09:49:25;2.55;;;2.20;;
46505;SDS011;32220;49.808;9.968;2023-04-30T09:51:53;3.38;;;1.98;;
46505;SDS011;32220;49.808;9.968;2023-04-30T09:54:23;2.42;;;2.22;;
46505;SDS011;32220;49.808;9.968;2023-04-30T09:56:54;2.22;;;1.75;;
46505;SDS011;32220;49.808;9.968;2023-04-30T09:59:26;2.20;;;2.10;;
46505;SDS011;32220;49.808;9.968;2023-04-30T10:01:57;2.30;;;2.10;;
46505;SDS011;32220;49.808;9.968;2023-04-30T10:04:27;2.10;;;1.90;;
46505;SDS011;32220;49.808;9.968;2023-04-30T10:06:57;2.37;;;1.57;;
46505;SDS011;32220;49.808;9.968;2023-04-30T10:09:28;2.07;;;1.87;;
46505;SDS011;32220;49.808;9.968;2023-04-30T10:12:03;2.00;;;1.60;;
46505;SDS011;32220;49.808;9.968;2023-04-30T10:14:34;1.60;;;1.50;;
46505;SDS011;32220;49.808;9.968;2023-04-30T10:17:05;1.57;;;1.47;;
46505;SDS011;32220;49.808;9.968;2023-04-30T10:19:38;1.90;;;1.80;;
46505;SDS011;32220;49.808;9.968;2023-04-30T10:22:09;2.00;;;1.67;;
46505;SDS011;32220;49.808;9.968;2023-04-30T10:24:37;1.60;;;1.30;;
46505;SDS011;32220;49.808;9.968;2023-04-30T10:27:07;1.83;;;1.47;;
46505;SDS011;32220;49.808;9.968;2023-04-30T10:29:34;1.50;;;1.40;;
46505;SDS011;32220;49.808;9.968;2023-04-30T10:32:02;3.57;;;1.20;;
46505;SDS011;32220;49.808;9.968;2023-04-30T10:34:34;2.37;;;1.63;;
46505;SDS011;32220;49.808;9.968;2023-04-30T10:37:10;1.57;;;1.30;;
46505;SDS011;32220;49.808;9.968;2023-04-30T10:39:43;2.03;;;1.23;;
46505;SDS011;32220;49.808;9.968;2023-04-30T10:42:13;3.37;;;1.60;;
46505;SDS011;32220;49.808;9.968;2023-04-30T10:44:41;1.33;;;1.23;;
46505;SDS011;32220;49.808;9.968;2023-04-30T10:47:09;1.60;;;1.50;;
46505;SDS011;32220;49.808;9.968;2023-04-30T10:49:37;1.70;;;1.13;;
46505;SDS011;32220;49.808;9.968;2023-04-30T10:52:09;1.47;;;1.10;;
46505;SDS011;32220;49.808;9.968;2023-04-30T10:54:37;1.70;;;1.60;;
46505;SDS011;32220;49.808;9.968;2023-04-30T10:57:16;1.97;;;1.53;;
46505;SDS011;32220;49.808;9.968;2023-04-30T10:59:50;1.53;;;1.43;;
46505;SDS011;32220;49.808;9.968;2023-04-30T11:02:19;1.80;;;1.53;;
46505;SDS011;32220;49.808;9.968;2023-04-30T11:07:44;1.47;;;1.37;;
46505;SDS011;32220;49.808;9.968;2023-04-30T11:10:15;1.30;;;1.20;;
46505;SDS011;32220;49.808;9.968;2023-04-30T11:12:47;1.45;;;1.35;;
46505;SDS011;32220;49.808;9.968;2023-04-30T11:15:16;1.52;;;1.35;;
46505;SDS011;32220;49.808;9.968;2023-04-30T11:17:46;1.50;;;1.40;;
46505;SDS011;32220;49.808;9.968;2023-04-30T11:20:17;1.58;;;1.30;;
46505;SDS011;32220;49.808;9.968;2023-04-30T11:22:46;1.27;;;1.20;;
46505;SDS011;32220;49.808;9.968;2023-04-30T11:25:17;1.60;;;1.27;;
46505;SDS011;32220;49.808;9.968;2023-04-30T11:27:46;2.80;;;1.20;;
46505;SDS011;32220;49.808;9.968;2023-04-30T11:30:16;1.20;;;1.10;;
46505;SDS011;32220;49.808;9.968;2023-04-30T11:32:45;1.30;;;1.20;;
46505;SDS011;32220;49.808;9.968;2023-04-30T11:35:16;1.27;;;1.17;;
46505;SDS011;32220;49.808;9.968;2023-04-30T11:37:45;1.20;;;1.10;;
46505;SDS011;32220;49.808;9.968;2023-04-30T11:40:14;1.20;;;1.20;;
46505;SDS011;32220;49.808;9.968;2023-04-30T11:42:42;1.73;;;1.63;;
46505;SDS011;32220;49.808;9.968;2023-04-30T11:45:13;1.30;;;1.20;;
46505;SDS011;32220;49.808;9.968;2023-04-30T11:47:43;1.37;;;1.20;;
46505;SDS011;32220;49.808;9.968;2023-04-30T11:50:12;0.90;;;0.90;;
46505;SDS011;32220;49.808;9.968;2023-04-30T11:52:41;1.20;;;1.20;;
46505;SDS011;32220;49.808;9.968;2023-04-30T11:55:16;2.30;;;0.80;;
46505;SDS011;32220;49.808;9.968;2023-04-30T11:57:45;0.90;;;0.90;;
46505;SDS011;32220;49.808;9.968;2023-04-30T12:00:17;1.13;;;1.03;;
46505;SDS011;32220;49.808;9.968;2023-04-30T12:02:46;1.83;;;1.00;;
46505;SDS011;32220;49.808;9.968;2023-04-30T12:05:15;1.70;;;0.80;;
46505;SDS011;32220;49.808;9.968;2023-04-30T12:07:46;1.53;;;0.83;;
46505;SDS011;32220;49.808;9.968;2023-04-30T12:10:14;1.23;;;1.13;;
46505;SDS011;32220;49.808;9.968;2023-04-30T12:12:42;0.73;;;0.70;;
46505;SDS011;32220;49.808;9.968;2023-04-30T12:15:12;0.75;;;0.75;;
46505;SDS011;32220;49.808;9.968;2023-04-30T12:17:48;1.10;;;0.90;;
46505;SDS011;32220;49.808;9.968;2023-04-30T12:20:15;1.00;;;0.90;;
46505;SDS011;32220;49.808;9.968;2023-04-30T12:22:43;0.88;;;0.88;;
46505;SDS011;32220;49.808;9.968;2023-04-30T12:25:12;1.00;;;0.90;;
46505;SDS011;32220;49.808;9.968;2023-04-30T12:27:41;0.98;;;0.80;;
46505;SDS011;32220;49.808;9.968;2023-04-30T12:30:12;0.75;;;0.75;;
46505;SDS011;32220;49.808;9.968;2023-04-30T12:32:41;1.40;;;0.60;;
46505;SDS011;32220;49.808;9.968;2023-04-30T12:35:12;0.60;;;0.60;;
46505;SDS011;32220;49.808;9.968;2023-04-30T12:37:42;1.58;;;0.68;;
46505;SDS011;32220;49.808;9.968;2023-04-30T12:40:11;1.05;;;0.85;;
46505;SDS011;32220;49.808;9.968;2023-04-30T12:42:40;1.35;;;0.60;;
46505;SDS011;32220;49.808;9.968;2023-04-30T12:45:09;1.52;;;0.60;;
46505;SDS011;32220;49.808;9.968;2023-04-30T12:47:38;0.60;;;0.60;;
46505;SDS011;32220;49.808;9.968;2023-04-30T12:50:10;0.85;;;0.70;;
46505;SDS011;32220;49.808;9.968;2023-04-30T12:52:38;0.55;;;0.55;;
46505;SDS011;32220;49.808;9.968;2023-04-30T12:55:16;1.17;;;0.50;;
46505;SDS011;32220;49.808;9.968;2023-04-30T13:00:41;2.60;;;0.70;;
46505;SDS011;32220;49.808;9.968;2023-04-30T13:03:10;1.00;;;0.60;;
46505;SDS011;32220;49.808;9.968;2023-04-30T13:05:39;0.50;;;0.50;;
46505;SDS011;32220;49.808;9.968;2023-04-30T13:08:07;0.60;;;0.60;;
46505;SDS011;32220;49.808;9.968;2023-04-30T13:10:35;0.60;;;0.60;;
46505;SDS011;32220;49.808;9.968;2023-04-30T13:13:02;0.82;;;0.60;;
46505;SDS011;32220;49.808;9.968;2023-04-30T13:15:30;0.60;;;0.60;;
46505;SDS011;32220;49.808;9.968;2023-04-30T13:17:57;0.63;;;0.63;;
46505;SDS011;32220;49.808;9.968;2023-04-30T13:20:25;0.60;;;0.55;;
46505;SDS011;32220;49.808;9.968;2023-04-30T13:22:54;0.82;;;0.70;;
46505;SDS011;32220;49.808;9.968;2023-04-30T13:25:21;0.70;;;0.65;;
46505;SDS011;32220;49.808;9.968;2023-04-30T13:27:49;0.57;;;0.57;;
46505;SDS011;32220;49.808;9.968;2023-04-30T13:30:16;1.45;;;0.60;;
46505;SDS011;32220;49.808;9.968;2023-04-30T13:32:44;0.52;;;0.52;;
46505;SDS011;32220;49.808;9.968;2023-04-30T13:35:12;0.60;;;0.60;;
46505;SDS011;32220;49.808;9.968;2023-04-30T13:37:39;0.70;;;0.70;;
46505;SDS011;32220;49.808;9.968;2023-04-30T13:40:09;0.80;;;0.80;;
46505;SDS011;32220;49.808;9.968;2023-04-30T13:42:37;0.50;;;0.50;;
46505;SDS011;32220;49.808;9.968;2023-04-30T13:45:05;0.50;;;0.50;;
46505;SDS011;32220;49.808;9.968;2023-04-30T13:47:34;0.60;;;0.60;;
46505;SDS011;32220;49.808;9.968;2023-04-30T13:50:02;0.70;;;0.70;;
46505;SDS011;32220;49.808;9.968;2023-04-30T13:52:30;1.13;;;0.60;;
46505;SDS011;32220;49.808;9.968;2023-04-30T13:54:58;0.60;;;0.60;;
46505;SDS011;32220;49.808;9.968;2023-04-30T13:57:27;0.80;;;0.70;;
46505;SDS011;32220;49.808;9.968;2023-04-30T13:59:57;0.80;;;0.80;;
46505;SDS011;32220;49.808;9.968;2023-04-30T14:02:25;0.67;;;0.67;;
46505;SDS011;32220;49.808;9.968;2023-04-30T14:04:53;0.60;;;0.60;;
46505;SDS011;32220;49.808;9.968;2023-04-30T14:07:22;0.80;;;0.80;;
46505;SDS011;32220;49.808;9.968;2023-04-30T14:09:50;1.07;;;0.80;;
46505;SDS011;32220;49.808;9.968;2023-04-30T14:12:17;0.70;;;0.60;;
46505;SDS011;32220;49.808;9.968;2023-04-30T14:14:47;0.70;;;0.70;;
46505;SDS011;32220;49.808;9.968;2023-04-30T14:17:15;0.60;;;0.60;;
46505;SDS011;32220;49.808;9.968;2023-04-30T14:19:42;0.80;;;0.60;;
46505;SDS011;32220;49.808;9.968;2023-04-30T14:22:10;0.67;;;0.67;;
46505;SDS011;32220;49.808;9.968;2023-04-30T14:24:38;1.03;;;0.77;;
46505;SDS011;32220;49.808;9.968;2023-04-30T14:27:06;0.70;;;0.70;;
46505;SDS011;32220;49.808;9.968;2023-04-30T14:29:34;0.60;;;0.60;;
46505;SDS011;32220;49.808;9.968;2023-04-30T14:32:03;1.67;;;0.70;;
46505;SDS011;32220;49.808;9.968;2023-04-30T14:34:32;1.10;;;1.10;;
46505;SDS011;32220;49.808;9.968;2023-04-30T14:37:00;1.87;;;1.23;;
46505;SDS011;32220;49.808;9.968;2023-04-30T14:39:29;4.17;;;3.80;;
46505;SDS011;32220;49.808;9.968;2023-04-30T14:41:56;1.63;;;1.53;;
46505;SDS011;32220;49.808;9.968;2023-04-30T14:44:24;4.43;;;4.00;;
46505;SDS011;32220;49.808;9.968;2023-04-30T14:46:52;2.57;;;2.30;;
46505;SDS011;32220;49.808;9.968;2023-04-30T14:49:21;13.77;;;12.27;;
46505;SDS011;32220;49.808;9.968;2023-04-30T14:51:49;1.10;;;1.00;;
46505;SDS011;32220;49.808;9.968;2023-04-30T14:54:16;0.87;;;0.87;;
46505;SDS011;32220;49.808;9.968;2023-04-30T14:56:44;1.60;;;0.80;;
46505;SDS011;32220;49.808;9.968;2023-04-30T14:59:11;0.80;;;0.70;;
46505;SDS011;32220;49.808;9.968;2023-04-30T15:01:39;1.90;;;0.90;;